Meteo Giornale » Osservazioni meteo Italia » Perugia

ore: 08:50 - Osservazioni Meteo Perugia
Lat. 43° 5' N Lon. 12° 30' E Alt. 208 metri s.l.m.

sereno Europe/Rome

13 °C

Sereno

Temp. 24 Ore

7 °C

17 °C

Nord

16.7 Km/h

Dew point 0 °C

Umidità 40 %

Visibilità  10 Km

Il sole sorge alle ore 06:07

Il sole tramonta alle ore 18:25

Data e Ora Cielo e Fenomeni T °C DP °C Um. % Pres. hPa Vis. km Vento km/h
Oggi h: 08:50 sereno Sereno 13 0 40 1027 10 N 16.7
Oggi h: 07:50 sereno Sereno 10 1 53 1027 10 N 16.7
Oggi h: 06:50 sereno Sereno 9 -0 53 1027 10 N/NE 16.7
Oggi h: 05:50 sereno Sereno 8 -1 52 1027 10 N 24
Oggi h: 04:50 sereno Sereno 7 -1 56 1027 10 N/NO 13
Oggi h: 03:50 sereno Sereno 8 -1 52 1027 10 N 14.8
Oggi h: 02:50 sereno Sereno 7 -0 60 1027 10 N 14.8
Oggi h: 01:50 sereno Sereno 8 -1 52 1027 10 N 9.3
Oggi h: 00:50 sereno Sereno 9 -1 49 1027 10 N 14.8
Ieri h: 23:50 sereno Sereno 9 -1 49 1027 10 N 16.7
Ieri h: 22:50 sereno Sereno 10 -1 46 1027 10 N/NO 11.1
Ieri h: 21:50 sereno Sereno 9 -0 53 1027 10 N 22.2
Ieri h: 20:50 sereno Sereno 10 -0 49 1027 10 NO 11.1
Ieri h: 19:50 sereno Sereno 10 1 53 1026 10 N 22.2
Ieri h: 18:50 sereno Sereno 11 1 50 1026 10 N 24
Ieri h: 17:50 sereno Sereno 12 3 54 1025 10 N 25.9
Ieri h: 16:50 sereno Sereno 14 3 47 1025 10 N/NE 29.6
Ieri h: 15:50 sereno Sereno 15 4 47 1025 10 N/NE 33.3
Ieri h: 14:50 sereno Sereno 16 4 44 1026 10 N/NE 29.6
Ieri h: 13:50 sereno Sereno 16 4 44 1026 10 N/NE 33.3
Ieri h: 12:50 sereno Sereno 17 4 41 1026 10 N/NE 27.8
Ieri h: 11:50 sereno Sereno 16 3 41 1027 10 N/NE 25.9
Ieri h: 10:50 sereno Sereno 15 2 41 1027 10 NE 25.9
Ieri h: 09:50 sereno Sereno 13 3 50 1027 10 N/NE 20.3